createdAt,value
2023-04-10T00:01:19.253Z,1.30
2023-04-10T00:04:01.028Z,1.58
2023-04-10T00:06:36.634Z,1.42
2023-04-10T00:09:13.247Z,1.60
2023-04-10T00:11:44.288Z,1.35
2023-04-10T00:14:23.193Z,1.50
2023-04-10T00:17:01.580Z,1.63
2023-04-10T00:19:43.365Z,1.42
2023-04-10T00:22:16.215Z,1.23
2023-04-10T00:24:52.002Z,1.47
2023-04-10T00:27:28.330Z,1.55
2023-04-10T00:30:04.443Z,1.40
2023-04-10T00:32:34.863Z,1.52
2023-04-10T00:35:10.959Z,1.40
2023-04-10T00:37:51.248Z,1.60
2023-04-10T00:40:27.502Z,1.48
2023-04-10T00:43:03.125Z,1.45
2023-04-10T00:45:36.361Z,1.40
2023-04-10T00:48:09.944Z,1.42
2023-04-10T00:50:46.594Z,1.70
2023-04-10T00:53:25.188Z,1.50
2023-04-10T00:55:58.977Z,1.42
2023-04-10T00:58:37.558Z,1.63
2023-04-10T01:01:13.243Z,1.35
2023-04-10T01:03:50.010Z,1.38
2023-04-10T01:06:59.501Z,1.27
2023-04-10T01:09:36.761Z,1.60
2023-04-10T01:12:33.094Z,1.48
2023-04-10T01:15:10.810Z,1.33
2023-04-10T01:17:52.272Z,1.60
2023-04-10T01:20:35.262Z,1.40
2023-04-10T01:23:21.370Z,1.42
2023-04-10T01:26:01.315Z,1.30
2023-04-10T01:28:41.492Z,1.30
2023-04-10T01:31:18.462Z,1.63
2023-04-10T01:34:03.776Z,1.30
2023-04-10T01:36:47.451Z,1.40
2023-04-10T01:39:21.685Z,1.40
2023-04-10T01:42:00.842Z,1.23
2023-04-10T01:44:47.196Z,1.23
2023-04-10T01:47:25.255Z,1.50
2023-04-10T01:50:02.565Z,1.33
2023-04-10T01:52:36.323Z,1.50
2023-04-10T01:55:28.370Z,1.40
2023-04-10T01:58:10.784Z,1.30
2023-04-10T02:00:47.252Z,1.30
2023-04-10T02:03:23.988Z,1.40
2023-04-10T02:06:27.398Z,1.40
2023-04-10T02:09:17.807Z,1.33
2023-04-10T02:12:09.366Z,1.20
2023-04-10T02:14:45.683Z,1.50
2023-04-10T02:17:29.202Z,1.50
2023-04-10T02:20:00.878Z,1.52
2023-04-10T02:22:34.322Z,1.40
2023-04-10T02:25:08.701Z,1.58
2023-04-10T02:27:45.289Z,1.20
2023-04-10T02:30:23.539Z,1.33
2023-04-10T02:33:03.328Z,1.50
2023-04-10T02:35:40.513Z,1.38
2023-04-10T02:38:19.817Z,1.50
2023-04-10T02:40:55.075Z,1.30
2023-04-10T02:43:31.000Z,1.50
2023-04-10T02:46:06.629Z,1.40
2023-04-10T02:48:45.061Z,1.52
2023-04-10T02:51:21.584Z,1.60
2023-04-10T02:53:59.864Z,1.33
2023-04-10T02:56:41.320Z,1.42
2023-04-10T02:59:17.347Z,1.45
2023-04-10T03:01:50.690Z,1.50
2023-04-10T03:04:30.053Z,1.40
2023-04-10T03:07:06.310Z,1.33
2023-04-10T03:09:42.525Z,1.27
2023-04-10T03:12:20.543Z,1.10
2023-04-10T03:14:56.345Z,1.60
2023-04-10T03:17:34.484Z,1.55
2023-04-10T03:20:07.834Z,1.60
2023-04-10T03:22:46.667Z,1.58
2023-04-10T03:25:19.442Z,1.23
2023-04-10T03:27:57.851Z,1.40
2023-04-10T03:30:40.088Z,1.40
2023-04-10T03:33:16.068Z,1.35
2023-04-10T03:35:57.339Z,1.60
2023-04-10T03:38:41.064Z,1.67
2023-04-10T03:41:14.989Z,1.60
2023-04-10T03:43:50.863Z,1.67
2023-04-10T03:46:30.493Z,1.60
2023-04-10T03:49:04.530Z,1.70
2023-04-10T03:51:38.722Z,1.50
2023-04-10T03:54:16.916Z,1.40
2023-04-10T03:56:49.475Z,1.52
2023-04-10T03:59:31.036Z,1.50
2023-04-10T04:02:16.600Z,1.45
2023-04-10T04:04:53.272Z,1.35
2023-04-10T04:07:49.677Z,1.50
2023-04-10T04:10:46.301Z,1.60
2023-04-10T04:13:28.477Z,1.60
2023-04-10T04:16:26.572Z,1.52
2023-04-10T04:19:10.240Z,1.60
2023-04-10T04:22:00.400Z,1.45
2023-04-10T04:25:13.679Z,1.65
2023-04-10T04:28:04.897Z,1.88
2023-04-10T04:30:58.464Z,1.50
2023-04-10T04:33:55.028Z,1.65
2023-04-10T04:36:36.725Z,1.70
2023-04-10T04:39:33.485Z,1.88
2023-04-10T04:42:25.274Z,1.73
2023-04-10T04:45:21.936Z,1.90
2023-04-10T04:48:19.185Z,1.80
2023-04-10T04:51:23.257Z,1.90
2023-04-10T04:54:10.563Z,1.90
2023-04-10T04:56:46.221Z,2.30
2023-04-10T04:59:59.588Z,1.83
2023-04-10T05:02:57.496Z,1.92
2023-04-10T05:05:35.982Z,2.05
2023-04-10T05:08:36.601Z,1.90
2023-04-10T05:11:32.339Z,1.67
2023-04-10T05:14:24.668Z,1.70
2023-04-10T05:17:16.870Z,1.60
2023-04-10T05:20:05.676Z,1.85
2023-04-10T05:22:53.104Z,1.90
2023-04-10T05:25:47.287Z,1.80
2023-04-10T05:28:24.625Z,2.00
2023-04-10T05:31:02.580Z,1.63
2023-04-10T05:33:56.359Z,1.80
2023-04-10T05:36:44.703Z,1.63
2023-04-10T05:39:36.560Z,1.67
2023-04-10T05:42:22.689Z,1.70
2023-04-10T05:45:19.544Z,1.65
2023-04-10T05:48:09.762Z,1.70
2023-04-10T05:50:53.504Z,1.65
2023-04-10T05:53:56.103Z,1.70
2023-04-10T05:56:46.760Z,1.67
2023-04-10T05:59:43.069Z,1.65
2023-04-10T06:02:45.307Z,1.67
2023-04-10T06:05:30.456Z,1.80
2023-04-10T06:08:08.533Z,1.80
2023-04-10T06:10:42.012Z,1.73
2023-04-10T06:13:24.312Z,1.80
2023-04-10T06:16:06.060Z,1.80
2023-04-10T06:18:42.589Z,1.90
2023-04-10T06:21:21.928Z,1.83
2023-04-10T06:23:52.533Z,1.83
2023-04-10T06:26:28.449Z,1.80
2023-04-10T06:29:01.656Z,1.77
2023-04-10T06:31:42.942Z,1.80
2023-04-10T06:34:19.672Z,1.80
2023-04-10T06:37:06.674Z,1.90
2023-04-10T06:39:42.704Z,2.00
2023-04-10T06:42:15.691Z,1.70
2023-04-10T06:45:03.276Z,1.77
2023-04-10T06:47:39.050Z,1.80
2023-04-10T06:50:17.959Z,1.80
2023-04-10T06:52:53.365Z,1.77
2023-04-10T06:55:26.761Z,1.90
2023-04-10T06:57:59.692Z,1.70
2023-04-10T07:00:37.442Z,1.67
2023-04-10T07:03:10.431Z,1.67
2023-04-10T07:05:47.358Z,1.70
2023-04-10T07:08:25.264Z,1.60
2023-04-10T07:11:00.382Z,1.83
2023-04-10T07:13:35.569Z,1.85
2023-04-10T07:16:11.478Z,1.70
2023-04-10T07:18:47.606Z,1.80
2023-04-10T07:21:23.556Z,2.00
2023-04-10T07:24:04.394Z,1.60
2023-04-10T07:26:44.095Z,1.60
2023-04-10T07:29:17.665Z,1.73
2023-04-10T07:31:50.732Z,1.55
2023-04-10T07:34:24.056Z,1.67
2023-04-10T07:37:00.852Z,1.80
2023-04-10T07:39:36.890Z,1.48
2023-04-10T07:42:12.271Z,1.50
2023-04-10T07:44:51.197Z,1.65
2023-04-10T07:47:23.681Z,1.63
2023-04-10T07:49:59.373Z,1.58
2023-04-10T07:52:35.074Z,1.48
2023-04-10T07:55:10.932Z,1.60
2023-04-10T07:57:46.754Z,1.60
2023-04-10T08:00:19.348Z,1.50
2023-04-10T08:02:57.321Z,1.75
2023-04-10T08:05:33.847Z,1.55
2023-04-10T08:08:07.305Z,1.70
2023-04-10T08:10:39.899Z,1.50
2023-04-10T08:13:15.611Z,1.60
2023-04-10T08:15:45.132Z,1.70
2023-04-10T08:18:24.947Z,1.50
2023-04-10T08:20:57.768Z,1.50
2023-04-10T08:23:29.003Z,1.50
2023-04-10T08:26:05.615Z,1.50
2023-04-10T08:28:50.177Z,1.58
2023-04-10T08:31:27.793Z,1.52
2023-04-10T08:34:00.713Z,1.35
2023-04-10T08:36:46.957Z,1.37
2023-04-10T08:39:19.916Z,1.38
2023-04-10T08:41:56.043Z,1.48
2023-04-10T08:44:31.732Z,1.33
2023-04-10T08:47:10.735Z,1.40
2023-04-10T08:49:56.639Z,1.45
2023-04-10T08:52:39.004Z,1.40
2023-04-10T08:55:13.159Z,1.20
2023-04-10T08:57:58.031Z,1.40
2023-04-10T09:00:35.281Z,1.45
2023-04-10T09:03:15.346Z,1.40
2023-04-10T09:05:48.268Z,1.48
2023-04-10T09:08:29.472Z,1.60
2023-04-10T09:11:02.461Z,1.65
2023-04-10T09:14:04.404Z,1.23
2023-04-10T09:16:39.820Z,1.27
2023-04-10T09:19:15.349Z,1.50
2023-04-10T09:21:53.442Z,1.60
2023-04-10T09:24:28.868Z,1.50
2023-04-10T09:27:07.265Z,1.45
2023-04-10T09:29:49.043Z,1.52
2023-04-10T09:32:56.482Z,1.60
2023-04-10T09:35:40.311Z,1.42
2023-04-10T09:38:42.419Z,1.30
2023-04-10T09:41:17.894Z,1.40
2023-04-10T09:44:08.214Z,1.30
2023-04-10T09:46:43.977Z,1.23
2023-04-10T09:49:14.406Z,1.40
2023-04-10T09:51:47.570Z,1.30
2023-04-10T09:54:39.943Z,1.35
2023-04-10T09:57:11.249Z,1.45
2023-04-10T09:59:59.668Z,1.40
2023-04-10T10:02:41.301Z,1.30
2023-04-10T10:05:14.550Z,1.50
2023-04-10T10:07:55.004Z,1.30
2023-04-10T10:10:34.420Z,1.50
2023-04-10T10:13:08.633Z,1.30
2023-04-10T10:15:57.858Z,1.42
2023-04-10T10:18:58.815Z,1.60
2023-04-10T10:21:40.436Z,1.27
2023-04-10T10:24:13.651Z,1.30
2023-04-10T10:26:50.493Z,1.40
2023-04-10T10:29:24.612Z,1.10
2023-04-10T10:32:02.954Z,1.38
2023-04-10T10:34:36.725Z,1.40
2023-04-10T10:37:12.389Z,1.27
2023-04-10T10:40:01.044Z,1.30
2023-04-10T10:42:38.360Z,1.30
2023-04-10T10:45:17.203Z,1.25
2023-04-10T10:48:08.053Z,1.38
2023-04-10T10:50:57.035Z,1.27
2023-04-10T10:53:53.621Z,1.30
2023-04-10T10:56:43.957Z,1.30
2023-04-10T10:59:16.502Z,1.52
2023-04-10T11:02:14.192Z,1.30
2023-04-10T11:04:49.561Z,1.38
2023-04-10T11:07:57.400Z,1.30
2023-04-10T11:10:59.187Z,1.17
2023-04-10T11:13:35.202Z,1.20
2023-04-10T11:16:11.403Z,1.20
2023-04-10T11:18:59.468Z,1.23
2023-04-10T11:22:08.426Z,1.20
2023-04-10T11:24:57.444Z,1.23
2023-04-10T11:27:46.576Z,1.63
2023-04-10T11:30:34.984Z,1.10
2023-04-10T11:33:18.220Z,1.30
2023-04-10T11:35:54.729Z,1.30
2023-04-10T11:38:33.239Z,1.35
2023-04-10T11:41:06.726Z,1.40
2023-04-10T11:43:48.387Z,1.52
2023-04-10T11:46:27.144Z,1.25
2023-04-10T11:49:07.139Z,1.30
2023-04-10T11:51:38.724Z,1.20
2023-04-10T11:54:16.992Z,1.33
2023-04-10T11:57:05.674Z,1.30
2023-04-10T11:59:41.416Z,1.23
2023-04-10T12:02:17.991Z,1.20
2023-04-10T12:04:59.206Z,1.20
2023-04-10T12:07:33.153Z,1.40
2023-04-10T12:10:07.572Z,1.30
2023-04-10T12:12:44.869Z,1.23
2023-04-10T12:15:31.556Z,1.30
2023-04-10T12:18:08.235Z,1.50
2023-04-10T12:20:41.097Z,1.40
2023-04-10T12:23:17.031Z,1.60
2023-04-10T12:25:57.100Z,1.40
2023-04-10T12:28:33.838Z,1.30
2023-04-10T12:31:15.676Z,1.17
2023-04-10T12:33:47.730Z,1.20
2023-04-10T12:36:25.365Z,1.25
2023-04-10T12:38:57.044Z,1.30
2023-04-10T12:41:30.633Z,1.30
2023-04-10T12:44:12.475Z,1.23
2023-04-10T12:46:48.164Z,1.20
2023-04-10T12:49:25.168Z,1.40
2023-04-10T12:51:57.937Z,1.40
2023-04-10T12:54:45.388Z,1.40
2023-04-10T12:57:28.954Z,1.35
2023-04-10T13:00:05.719Z,1.20
2023-04-10T13:02:39.886Z,1.70
2023-04-10T13:05:11.489Z,1.23
2023-04-10T13:07:45.569Z,1.30
2023-04-10T13:10:21.852Z,1.20
2023-04-10T13:12:56.674Z,1.10
2023-04-10T13:15:28.172Z,1.40
2023-04-10T13:17:58.761Z,1.40
2023-04-10T13:20:29.452Z,1.48
2023-04-10T13:23:05.730Z,1.17
2023-04-10T13:25:43.739Z,1.42
2023-04-10T13:28:15.944Z,1.40
2023-04-10T13:30:48.877Z,1.33
2023-04-10T13:33:26.909Z,1.37
2023-04-10T13:35:59.717Z,1.25
2023-04-10T13:38:34.005Z,1.30
2023-04-10T13:41:12.576Z,1.30
2023-04-10T13:43:53.177Z,1.30
2023-04-10T13:46:29.268Z,1.40
2023-04-10T13:49:04.960Z,1.30
2023-04-10T13:51:43.564Z,1.20
2023-04-10T13:54:20.121Z,1.27
2023-04-10T13:56:56.155Z,1.35
2023-04-10T13:59:34.414Z,1.40
2023-04-10T14:02:08.541Z,1.30
2023-04-10T14:04:46.166Z,1.55
2023-04-10T14:07:16.206Z,1.20
2023-04-10T14:09:51.415Z,1.27
2023-04-10T14:12:24.132Z,1.05
2023-04-10T14:15:04.810Z,1.30
2023-04-10T14:17:36.524Z,1.10
2023-04-10T14:20:11.472Z,1.23
2023-04-10T14:22:40.715Z,1.15
2023-04-10T14:25:13.653Z,1.25
2023-04-10T14:27:48.487Z,1.20
2023-04-10T14:30:30.848Z,1.23
2023-04-10T14:33:08.844Z,1.10
2023-04-10T14:35:44.861Z,1.10
2023-04-10T14:38:20.598Z,1.30
2023-04-10T14:40:53.802Z,1.15
2023-04-10T14:43:32.031Z,1.20
2023-04-10T14:46:07.713Z,1.20
2023-04-10T14:48:40.535Z,1.23
2023-04-10T14:51:16.293Z,1.10
2023-04-10T14:53:51.376Z,1.10
2023-04-10T14:56:29.674Z,1.10
2023-04-10T14:59:08.490Z,1.15
2023-04-10T15:01:44.351Z,1.20
2023-04-10T15:04:19.632Z,1.35
2023-04-10T15:06:51.831Z,1.13
2023-04-10T15:09:30.945Z,1.35
2023-04-10T15:12:09.795Z,1.20
2023-04-10T15:14:41.067Z,1.30
2023-04-10T15:17:21.548Z,1.25
2023-04-10T15:19:51.953Z,1.20
2023-04-10T15:22:27.564Z,1.10
2023-04-10T15:25:09.670Z,1.25
2023-04-10T15:27:47.923Z,1.25
2023-04-10T15:30:28.815Z,1.23
2023-04-10T15:33:03.900Z,1.30
2023-04-10T15:35:42.018Z,1.20
2023-04-10T15:38:20.052Z,1.20
2023-04-10T15:40:52.880Z,1.30
2023-04-10T15:43:30.783Z,1.25
2023-04-10T15:46:04.142Z,1.30
2023-04-10T15:48:37.088Z,1.20
2023-04-10T15:51:12.661Z,1.38
2023-04-10T15:53:48.834Z,1.40
2023-04-10T15:56:24.489Z,1.30
2023-04-10T15:59:00.325Z,1.25
2023-04-10T16:01:38.645Z,1.27
2023-04-10T16:04:19.082Z,1.23
2023-04-10T16:06:59.568Z,1.17
2023-04-10T16:09:34.588Z,1.30
2023-04-10T16:12:16.831Z,1.10
2023-04-10T16:14:49.622Z,1.15
2023-04-10T16:17:25.075Z,1.33
2023-04-10T16:19:58.251Z,1.33
2023-04-10T16:22:36.611Z,1.30
2023-04-10T16:25:13.005Z,1.25
2023-04-10T16:27:51.084Z,1.10
2023-04-10T16:30:24.356Z,1.23
2023-04-10T16:33:04.014Z,1.40
2023-04-10T16:35:45.873Z,1.23
2023-04-10T16:38:24.058Z,1.30
2023-04-10T16:41:03.972Z,1.20
2023-04-10T16:43:39.579Z,1.20
2023-04-10T16:46:21.096Z,1.23
2023-04-10T16:48:54.095Z,1.23
2023-04-10T16:51:25.232Z,1.00
2023-04-10T16:54:03.764Z,1.35
2023-04-10T16:56:45.362Z,1.20
2023-04-10T16:59:15.922Z,1.10
2023-04-10T17:01:51.661Z,1.30
2023-04-10T17:04:27.324Z,1.20
2023-04-10T17:07:08.311Z,1.10
2023-04-10T17:09:39.450Z,1.30
2023-04-10T17:12:17.343Z,1.40
2023-04-10T17:14:51.261Z,1.20
2023-04-10T17:17:28.781Z,1.30
2023-04-10T17:20:04.898Z,1.25
2023-04-10T17:22:43.840Z,1.30
2023-04-10T17:25:22.830Z,1.30
2023-04-10T17:27:57.335Z,1.02
2023-04-10T17:30:36.267Z,1.20
2023-04-10T17:33:15.423Z,1.40
2023-04-10T17:35:51.386Z,1.27
2023-04-10T17:38:30.377Z,1.30
2023-04-10T17:41:06.198Z,1.27
2023-04-10T17:43:42.042Z,1.17
2023-04-10T17:46:20.081Z,1.20
2023-04-10T17:49:01.167Z,1.10
2023-04-10T17:51:34.116Z,1.05
2023-04-10T17:54:12.573Z,1.45
2023-04-10T17:56:48.171Z,1.20
2023-04-10T17:59:31.836Z,1.10
2023-04-10T18:02:11.497Z,1.10
2023-04-10T18:04:49.547Z,1.10
2023-04-10T18:07:25.304Z,1.10
2023-04-10T18:09:58.070Z,1.20
2023-04-10T18:12:33.127Z,1.10
2023-04-10T18:15:07.314Z,1.00
2023-04-10T18:17:45.912Z,1.30
2023-04-10T18:20:22.424Z,1.10
2023-04-10T18:23:01.162Z,1.27
2023-04-10T18:25:32.731Z,1.10
2023-04-10T18:28:14.886Z,1.25
2023-04-10T18:30:56.775Z,1.15
2023-04-10T18:33:35.014Z,1.17
2023-04-10T18:36:10.765Z,1.15
2023-04-10T18:38:49.804Z,1.20
2023-04-10T18:41:24.954Z,1.20
2023-04-10T18:44:04.080Z,1.00
2023-04-10T18:46:42.750Z,1.25
2023-04-10T18:49:16.914Z,1.17
2023-04-10T18:51:54.837Z,1.00
2023-04-10T18:54:30.697Z,1.15
2023-04-10T18:57:04.569Z,1.23
2023-04-10T18:59:40.702Z,1.00
2023-04-10T19:02:13.705Z,1.30
2023-04-10T19:04:55.883Z,1.13
2023-04-10T19:07:37.741Z,1.02
2023-04-10T19:10:09.613Z,1.35
2023-04-10T19:12:45.258Z,1.20
2023-04-10T19:15:13.967Z,1.30
2023-04-10T19:17:47.861Z,1.10
2023-04-10T19:20:50.375Z,1.10
2023-04-10T19:23:22.726Z,1.20
2023-04-10T19:26:00.307Z,1.10
2023-04-10T19:28:36.561Z,1.20
2023-04-10T19:31:17.204Z,1.30
2023-04-10T19:33:56.079Z,1.20
2023-04-10T19:36:31.854Z,1.20
2023-04-10T19:39:04.993Z,1.30
2023-04-10T19:41:41.961Z,1.08
2023-04-10T19:44:13.290Z,1.15
2023-04-10T19:46:48.680Z,1.20
2023-04-10T19:49:22.461Z,1.20
2023-04-10T19:51:55.902Z,1.25
2023-04-10T19:54:29.914Z,1.20
2023-04-10T19:57:04.591Z,1.30
2023-04-10T19:59:39.745Z,1.40
2023-04-10T20:02:15.330Z,1.08
2023-04-10T20:04:50.926Z,1.30
2023-04-10T20:07:18.414Z,1.00
2023-04-10T20:09:46.950Z,1.30
2023-04-10T20:12:25.731Z,1.10
2023-04-10T20:15:01.372Z,1.30
2023-04-10T20:17:40.080Z,1.33
2023-04-10T20:20:15.787Z,1.38
2023-04-10T20:22:51.120Z,1.30
2023-04-10T20:25:29.624Z,1.30
2023-04-10T20:28:05.529Z,1.30
2023-04-10T20:30:39.445Z,1.38
2023-04-10T20:33:14.590Z,1.50
2023-04-10T20:35:49.972Z,1.30
2023-04-10T20:38:27.336Z,1.25
2023-04-10T20:41:03.290Z,1.38
2023-04-10T20:43:38.749Z,1.25
2023-04-10T20:46:17.430Z,1.55
2023-04-10T20:48:55.237Z,1.10
2023-04-10T20:51:33.606Z,1.50
2023-04-10T20:54:06.440Z,1.48
2023-04-10T20:56:45.614Z,1.30
2023-04-10T20:59:22.363Z,1.30
2023-04-10T21:02:01.648Z,1.42
2023-04-10T21:04:37.519Z,1.30
2023-04-10T21:07:12.501Z,1.40
2023-04-10T21:09:45.784Z,1.30
2023-04-10T21:12:22.233Z,1.40
2023-04-10T21:15:00.357Z,1.42
2023-04-10T21:17:37.190Z,1.45
2023-04-10T21:20:13.485Z,1.38
2023-04-10T21:22:51.053Z,1.40
2023-04-10T21:25:24.394Z,1.40
2023-04-10T21:28:00.644Z,1.30
2023-04-10T21:30:34.440Z,1.65
2023-04-10T21:33:09.808Z,1.42
2023-04-10T21:35:50.055Z,1.38
2023-04-10T21:38:26.344Z,1.45
2023-04-10T21:40:59.230Z,1.58
2023-04-10T21:43:35.340Z,1.50
2023-04-10T21:46:11.168Z,1.58
2023-04-10T21:48:46.834Z,1.55
2023-04-10T21:51:19.652Z,1.48
2023-04-10T21:53:55.415Z,1.60
2023-04-10T21:56:30.508Z,1.45
2023-04-10T21:59:03.290Z,1.83
2023-04-10T22:01:41.648Z,1.50
2023-04-10T22:04:18.550Z,1.42
2023-04-10T22:06:53.477Z,1.60
2023-04-10T22:09:31.713Z,1.50
2023-04-10T22:12:10.339Z,1.40
2023-04-10T22:14:48.366Z,1.60
2023-04-10T22:17:28.424Z,1.60
2023-04-10T22:20:04.015Z,1.70
2023-04-10T22:22:42.249Z,1.52
2023-04-10T22:25:20.800Z,1.63
2023-04-10T22:27:58.271Z,1.70
2023-04-10T22:30:36.175Z,1.58
2023-04-10T22:33:07.625Z,1.55
2023-04-10T22:35:43.451Z,1.70
2023-04-10T22:38:19.099Z,1.90
2023-04-10T22:40:53.627Z,1.42
2023-04-10T22:43:23.802Z,1.60
2023-04-10T22:46:02.371Z,1.50
2023-04-10T22:48:40.761Z,1.50
2023-04-10T22:51:20.418Z,1.80
2023-04-10T22:53:53.958Z,1.70
2023-04-10T22:56:31.785Z,1.60
2023-04-10T22:59:05.763Z,1.80
2023-04-10T23:01:44.816Z,1.70
2023-04-10T23:04:20.362Z,1.55
2023-04-10T23:06:56.086Z,1.50
2023-04-10T23:09:26.531Z,1.77
2023-04-10T23:11:59.276Z,1.63
2023-04-10T23:14:37.007Z,1.67
2023-04-10T23:17:12.808Z,1.50
2023-04-10T23:19:43.980Z,1.80
2023-04-10T23:22:20.871Z,1.70
2023-04-10T23:24:57.967Z,1.70
2023-04-10T23:27:28.164Z,1.85
2023-04-10T23:30:04.156Z,1.83
2023-04-10T23:32:40.758Z,1.70
2023-04-10T23:35:16.473Z,1.75
2023-04-10T23:37:55.816Z,1.80
2023-04-10T23:40:34.105Z,2.00
2023-04-10T23:43:06.700Z,1.70
2023-04-10T23:45:42.347Z,1.75
2023-04-10T23:48:16.404Z,1.73
2023-04-10T23:51:07.786Z,1.90
2023-04-10T23:53:40.472Z,1.70
2023-04-10T23:56:15.274Z,1.80
2023-04-10T23:58:52.252Z,2.10
